Newark, OH

10:24 PM EDT on May 26, 2015 (GMT -0400)
Fairfield County | | Change Station
CLOSE
Current Station
Airport
Location: Lancaster,
Elevation: 869 ft
Nearby Weather Stations

Elev 869 ft 39.76 °N, 82.66 °W | Updated 31 minutes ago

Rain
Rain
69 °F
Feels Like 69 °F
N
9
Wind Variable Wind from SSW

Today
High -- | Low -- °F
--% Chance of Precip.
Yesterday
High -- | Low -- °F
Precip. -- in
6:05 AM 8:47 PM
Waxing Gibbous, 63% visible
Pressure 30.04 in
Visibility 6.0 miles
Clouds Scattered Clouds 1900 ft
Mostly Cloudy 3000 ft
Overcast 5000 ft
Dew Point 65 °F
Humidity 87%
Rainfall 0.55 in
Snow Depth Not available.
UV 0 out of 12
Pollen 6.30 out of 12
Air Quality Not available.
Flu Activity Local Activity
METAR KLHQ 270153Z AUTO 20008KT 6SM RA BR SCT019 BKN030 OVC050 21/18 A3006 RMK AO2 PK WND 27029/0055 WSHFT 0051 LTG DSNT NE RAE24B50 TSE24 SLP172 P0013 T02060183

More Conditions Fewer Conditions

Pressure 30.04 in
Visibility 6.0 miles
Clouds Scattered Clouds 1900 ft
Mostly Cloudy 3000 ft
Overcast 5000 ft
Dew Point 65 °F
Humidity 87%
Rainfall 0.55 in
Snow Depth Not available.
UV 0 out of 12
Pollen 6.30 out of 12
Air Quality Not available.
Flu Activity Local Activity
METAR KLHQ 270153Z AUTO 20008KT 6SM RA BR SCT019 BKN030 OVC050 21/18 A3006 RMK AO2 PK WND 27029/0055 WSHFT 0051 LTG DSNT NE RAE24B50 TSE24 SLP172 P0013 T02060183

More Conditions Fewer Conditions

10-Day Weather Forecast

Almanac

Astronomy

May. 26, 2015 Rise Set
Actual Time
Civil Twilight
Nautical Twilight
Astronomical Twilight
Moon
Length of Visible Light
Length of Day
Tomorrow will be .
, % of the Moon is Illuminated

Today's Extremes

State Highs State Lows

Community

WunderPhotos

Upload Photos

1,824,562 photos uploaded!

WunderBlogs® & News

Nearby

Air Quality

  Air Quality AQ Index Pollutant
Not available.

Snow Depth

Station Depth Elevation

Earthquake Activity

City Distance Mag. Time & Date
Minimum magnitude displayed is 2.5.

Coastal Water Temperatures

Place Temperature

Stations

Nearby Weather Stations

Station Location Temp. Windchill Dew Point Humidity Wind Precip. Elev Updated Type